Chanute Martin Johnson Airport

About
Name: Chanute Martin Johnson Airport
Identifier:  CNU/KCNU
Serves:  Chanute, Kansas
Owner:  City of Chanute
Public/Private:  Public
Local Time:  20. Aug 08:56 CDT
Description: Coordinates: 37°40′08″N 095°29′06″W / 37.66889°N 95.48500°W / 37.66889; -95.48500
Source: Wikipedia
Location
Runways
Identifier Length (m/ft) Surface
18/36 4,255/4,255 Asphalt
8/26 2,200/2,200 Turf
Flights per Day
0 flights
Distance: 964km (599mi)
Punctuality
50% (0 flights per day delayed)
Delay Average: 10 minutes
Current Weather
 27 C (Humidity: 78%)
  6kt (11km/h / 6mph) from 180°
  16km (10 mi.)
 
 METAR KCNU 201252Z AUTO 18006KT 10SM CLR 27/23 A3002 RMK AO2 SLP152 T02670233

Current Flights

Departures
Number Departure To Airline
Arrivals
Number Arrival From Airline

Current Delays

Departures
N/A
Arrivals
N/A

Destinations

Top Destinations
Airport Flights
per week
Seats
per week
  Kansas City (MKC) 0 - 0 0
  Wichita (ICT) 0 - 0 0
  Kansas City (OJC) 0 - 0 0

Airlines & Planes

Top Airlines
Airline Flights
per Day
Seats
per Day
EagleMed 0 -
  Flybe Nordic 0 -
Top Plane Types
Model Flights Seats
Beech B200 Super King Air 0.1/day - 0